createdAt,value
2018-10-05T00:02:16.244Z,11.03
2018-10-05T00:04:45.915Z,11.03
2018-10-05T00:07:15.720Z,11.03
2018-10-05T00:09:45.473Z,11.05
2018-10-05T00:12:15.159Z,11.08
2018-10-05T00:14:44.807Z,11.13
2018-10-05T00:17:14.471Z,11.19
2018-10-05T00:19:44.127Z,11.25
2018-10-05T00:22:13.857Z,11.32
2018-10-05T00:24:43.463Z,11.37
2018-10-05T00:27:13.102Z,11.43
2018-10-05T00:29:42.723Z,11.46
2018-10-05T00:32:12.387Z,11.51
2018-10-05T00:34:42.004Z,11.56
2018-10-05T00:37:11.675Z,11.60
2018-10-05T00:39:41.319Z,11.64
2018-10-05T00:42:11.002Z,11.69
2018-10-05T00:44:40.654Z,11.72
2018-10-05T00:47:10.367Z,11.77
2018-10-05T00:49:40.028Z,11.81
2018-10-05T00:52:09.715Z,11.84
2018-10-05T00:54:39.354Z,11.88
2018-10-05T00:57:08.996Z,11.91
2018-10-05T00:59:38.798Z,11.94
2018-10-05T01:02:08.544Z,11.95
2018-10-05T01:04:38.289Z,11.95
2018-10-05T01:07:07.975Z,11.94
2018-10-05T01:09:37.579Z,11.90
2018-10-05T01:12:07.400Z,11.86
2018-10-05T01:14:37.006Z,11.82
2018-10-05T01:17:06.748Z,11.80
2018-10-05T01:19:37.134Z,11.76
2018-10-05T01:22:06.938Z,11.74
2018-10-05T01:24:36.580Z,11.74
2018-10-05T01:27:06.248Z,11.75
2018-10-05T01:29:35.934Z,11.76
2018-10-05T01:32:05.616Z,11.78
2018-10-05T01:34:35.290Z,11.79
2018-10-05T01:37:04.753Z,11.81
2018-10-05T01:39:34.170Z,11.80
2018-10-05T01:42:03.624Z,11.80
2018-10-05T01:44:33.057Z,11.79
2018-10-05T01:47:02.634Z,11.79
2018-10-05T01:49:32.074Z,11.80
2018-10-05T01:52:01.545Z,11.81
2018-10-05T01:54:30.955Z,11.83
2018-10-05T01:57:00.423Z,11.85
2018-10-05T01:59:29.844Z,11.84
2018-10-05T02:01:59.272Z,11.84
2018-10-05T02:04:28.674Z,11.84
2018-10-05T02:06:58.256Z,11.82
2018-10-05T02:09:27.717Z,11.81
2018-10-05T02:11:57.099Z,11.81
2018-10-05T02:14:26.672Z,11.82
2018-10-05T02:16:56.197Z,11.82
2018-10-05T02:19:25.620Z,11.81
2018-10-05T02:21:55.202Z,11.81
2018-10-05T02:24:24.604Z,11.83
2018-10-05T02:26:54.032Z,11.84
2018-10-05T02:29:23.449Z,11.85
2018-10-05T02:31:53.169Z,11.85
2018-10-05T02:34:22.564Z,11.87
2018-10-05T02:36:52.026Z,11.88
2018-10-05T02:39:21.408Z,11.89
2018-10-05T02:41:50.869Z,11.91
2018-10-05T02:44:20.216Z,11.92
2018-10-05T02:46:49.666Z,11.92
2018-10-05T02:49:19.076Z,11.92
2018-10-05T02:51:48.643Z,11.94
2018-10-05T02:54:18.031Z,11.92
2018-10-05T02:56:47.420Z,11.92
2018-10-05T02:59:16.959Z,11.91
2018-10-05T03:02:03.258Z,11.90
2018-10-05T03:04:32.960Z,11.89
2018-10-05T03:07:02.433Z,11.89
2018-10-05T03:09:31.838Z,11.90
2018-10-05T03:12:01.344Z,11.90
2018-10-05T03:14:30.742Z,11.91
2018-10-05T03:17:00.173Z,11.90
2018-10-05T03:19:29.620Z,11.90
2018-10-05T03:21:59.019Z,11.90
2018-10-05T03:24:28.424Z,11.91
2018-10-05T03:26:57.839Z,11.91
2018-10-05T03:29:27.586Z,11.92
2018-10-05T03:31:57.026Z,11.91
2018-10-05T03:34:26.482Z,11.92
2018-10-05T03:36:55.886Z,11.92
2018-10-05T03:39:25.331Z,11.90
2018-10-05T03:41:54.760Z,11.92
2018-10-05T03:44:24.193Z,11.93
2018-10-05T03:46:53.623Z,11.94
2018-10-05T03:49:23.084Z,11.94
2018-10-05T03:51:52.579Z,11.93
2018-10-05T03:54:22.054Z,11.94
2018-10-05T03:56:51.539Z,11.95
2018-10-05T03:59:20.969Z,11.96
2018-10-05T04:01:50.415Z,11.96
2018-10-05T04:04:19.857Z,11.97
2018-10-05T04:06:49.320Z,11.96
2018-10-05T04:09:18.840Z,11.98
2018-10-05T04:11:48.391Z,11.99
2018-10-05T04:14:17.948Z,12.00
2018-10-05T04:16:47.499Z,11.99
2018-10-05T04:19:16.996Z,12.03
2018-10-05T04:21:46.426Z,12.05
2018-10-05T04:24:15.848Z,12.06
2018-10-05T04:26:45.275Z,12.07
2018-10-05T04:29:14.868Z,12.07
2018-10-05T04:31:44.432Z,12.08
2018-10-05T04:34:13.869Z,12.09
2018-10-05T04:36:43.293Z,12.10
2018-10-05T04:39:13.772Z,12.10
2018-10-05T04:41:43.209Z,12.12
2018-10-05T04:44:12.611Z,12.12
2018-10-05T04:46:42.015Z,12.14
2018-10-05T04:49:11.470Z,12.14
2018-10-05T04:51:40.891Z,12.16
2018-10-05T04:54:10.302Z,12.17
2018-10-05T04:56:39.777Z,12.19
2018-10-05T04:59:09.168Z,12.19
2018-10-05T05:01:38.552Z,12.21
2018-10-05T05:04:07.988Z,12.20
2018-10-05T05:06:37.400Z,12.21
2018-10-05T05:09:08.157Z,12.22
2018-10-05T05:11:37.712Z,12.21
2018-10-05T05:14:07.092Z,12.22
2018-10-05T05:16:36.488Z,12.22
2018-10-05T05:19:06.411Z,12.22
2018-10-05T05:21:35.823Z,12.23
2018-10-05T05:24:05.234Z,12.22
2018-10-05T05:26:34.663Z,12.22
2018-10-05T05:29:04.092Z,12.22
2018-10-05T05:31:33.529Z,12.25
2018-10-05T05:34:03.221Z,12.26
2018-10-05T05:36:32.691Z,12.25
2018-10-05T05:39:02.223Z,12.26
2018-10-05T05:41:31.692Z,12.28
2018-10-05T05:44:01.107Z,12.30
2018-10-05T05:46:30.572Z,12.32
2018-10-05T05:49:00.046Z,12.34
2018-10-05T05:51:29.516Z,12.36
2018-10-05T05:53:58.967Z,12.39
2018-10-05T05:56:28.467Z,12.40
2018-10-05T05:58:57.904Z,12.43
2018-10-05T06:01:27.329Z,12.47
2018-10-05T06:03:56.882Z,12.52
2018-10-05T06:06:26.309Z,12.57
2018-10-05T06:08:55.816Z,12.62
2018-10-05T06:11:25.275Z,12.67
2018-10-05T06:13:54.680Z,12.75
2018-10-05T06:16:24.187Z,12.84
2018-10-05T06:18:53.609Z,12.93
2018-10-05T06:21:23.078Z,13.02
2018-10-05T06:23:52.425Z,13.10
2018-10-05T06:26:21.846Z,13.18
2018-10-05T06:28:51.259Z,13.25
2018-10-05T06:31:20.671Z,13.36
2018-10-05T06:33:50.300Z,13.67
2018-10-05T06:36:19.680Z,14.64
2018-10-05T06:38:49.151Z,15.95
2018-10-05T06:41:18.710Z,17.25
2018-10-05T06:43:48.097Z,18.56
2018-10-05T06:46:17.481Z,19.74
2018-10-05T06:48:46.895Z,20.82
2018-10-05T06:51:16.297Z,21.72
2018-10-05T06:53:45.806Z,22.50
2018-10-05T06:56:15.280Z,23.24
2018-10-05T06:58:44.680Z,23.91
2018-10-05T07:01:14.247Z,24.62
2018-10-05T07:03:43.597Z,25.19
2018-10-05T07:06:13.004Z,25.68
2018-10-05T07:08:42.428Z,26.11
2018-10-05T07:11:11.910Z,26.34
2018-10-05T07:13:41.360Z,26.61
2018-10-05T07:16:10.771Z,26.97
2018-10-05T07:18:40.378Z,27.39
2018-10-05T07:21:09.877Z,27.79
2018-10-05T07:23:39.338Z,28.16
2018-10-05T07:26:08.758Z,28.57
2018-10-05T07:28:38.193Z,28.88
2018-10-05T07:31:08.005Z,29.08
2018-10-05T07:33:37.584Z,29.33
2018-10-05T07:36:07.173Z,29.37
2018-10-05T07:38:36.684Z,29.52
2018-10-05T07:41:06.447Z,29.70
2018-10-05T07:43:35.892Z,29.90
2018-10-05T07:46:05.361Z,30.06
2018-10-05T07:48:34.928Z,30.12
2018-10-05T07:51:04.330Z,30.15
2018-10-05T07:53:33.754Z,30.24
2018-10-05T07:56:03.347Z,30.49
2018-10-05T07:58:32.761Z,30.55
2018-10-05T08:01:02.174Z,30.59
2018-10-05T08:03:31.603Z,30.62
2018-10-05T08:06:01.057Z,30.79
2018-10-05T08:08:30.479Z,31.03
2018-10-05T08:10:59.879Z,31.33
2018-10-05T08:13:29.288Z,31.52
2018-10-05T08:15:58.786Z,31.61
2018-10-05T08:18:28.202Z,31.68
2018-10-05T08:20:57.603Z,31.73
2018-10-05T08:23:27.046Z,31.94
2018-10-05T08:25:56.580Z,32.06
2018-10-05T08:28:25.987Z,32.09
2018-10-05T08:30:55.404Z,32.16
2018-10-05T08:33:24.996Z,32.15
2018-10-05T08:35:54.517Z,32.37
2018-10-05T08:38:23.992Z,32.49
2018-10-05T08:40:53.446Z,32.58
2018-10-05T08:43:22.928Z,32.77
2018-10-05T08:45:52.418Z,32.94
2018-10-05T08:48:21.747Z,33.08
2018-10-05T08:50:51.190Z,33.02
2018-10-05T08:53:20.586Z,33.11
2018-10-05T08:55:50.273Z,33.16
2018-10-05T08:58:19.673Z,33.22
2018-10-05T09:00:49.076Z,33.34
2018-10-05T09:03:18.504Z,33.42
2018-10-05T09:05:47.985Z,33.46
2018-10-05T09:08:17.521Z,33.59
2018-10-05T09:10:46.935Z,33.41
2018-10-05T09:13:16.313Z,33.11
2018-10-05T09:15:45.721Z,33.12
2018-10-05T09:18:15.318Z,33.16
2018-10-05T09:20:44.627Z,33.14
2018-10-05T09:23:14.011Z,32.98
2018-10-05T09:25:43.437Z,33.05
2018-10-05T09:28:12.820Z,33.15
2018-10-05T09:30:42.231Z,33.03
2018-10-05T09:33:11.796Z,32.82
2018-10-05T09:35:41.181Z,32.73
2018-10-05T09:38:10.567Z,32.58
2018-10-05T09:40:40.016Z,32.42
2018-10-05T09:43:09.418Z,32.52
2018-10-05T09:45:38.893Z,32.44
2018-10-05T09:48:08.587Z,32.14
2018-10-05T09:50:37.977Z,31.88
2018-10-05T09:53:07.396Z,31.58
2018-10-05T09:55:36.981Z,31.04
2018-10-05T09:58:06.408Z,30.83
2018-10-05T10:00:41.475Z,30.51
2018-10-05T10:03:16.072Z,30.57
2018-10-05T10:05:45.600Z,30.51
2018-10-05T10:08:15.195Z,30.13
2018-10-05T10:10:44.605Z,29.52
2018-10-05T10:13:14.020Z,29.35
2018-10-05T10:15:43.409Z,29.10
2018-10-05T10:18:12.863Z,28.72
2018-10-05T10:20:42.328Z,28.58
2018-10-05T10:23:11.716Z,28.34
2018-10-05T10:25:41.233Z,28.13
2018-10-05T10:28:10.705Z,27.93
2018-10-05T10:30:40.102Z,27.72
2018-10-05T10:33:09.509Z,27.08
2018-10-05T10:35:38.956Z,26.44
2018-10-05T10:38:08.341Z,25.75
2018-10-05T10:40:37.739Z,25.08
2018-10-05T10:43:07.528Z,24.77
2018-10-05T10:45:36.997Z,24.76
2018-10-05T10:48:06.796Z,24.59
2018-10-05T10:50:36.169Z,24.49
2018-10-05T10:53:05.601Z,24.44
2018-10-05T10:55:34.930Z,24.44
2018-10-05T10:58:04.440Z,24.38
2018-10-05T11:00:33.972Z,24.12
2018-10-05T11:03:03.733Z,23.80
2018-10-05T11:05:33.151Z,23.43
2018-10-05T11:08:03.548Z,23.06
2018-10-05T11:10:32.973Z,22.74
2018-10-05T11:13:02.431Z,22.43
2018-10-05T11:15:31.819Z,22.13
2018-10-05T11:18:01.234Z,21.85
2018-10-05T11:20:30.840Z,21.53
2018-10-05T11:23:00.286Z,21.23
2018-10-05T11:25:29.835Z,21.03
2018-10-05T11:27:59.396Z,20.89
2018-10-05T11:30:28.848Z,20.78
2018-10-05T11:32:58.308Z,20.66
2018-10-05T11:35:27.909Z,20.61
2018-10-05T11:37:57.388Z,20.58
2018-10-05T11:40:26.911Z,20.47
2018-10-05T11:42:56.362Z,20.35
2018-10-05T11:45:25.787Z,20.22
2018-10-05T11:47:55.316Z,20.11
2018-10-05T11:50:24.900Z,20.02
2018-10-05T11:52:54.392Z,19.95
2018-10-05T11:55:23.851Z,19.90
2018-10-05T11:57:53.316Z,19.85
2018-10-05T12:00:22.713Z,19.86
2018-10-05T12:02:52.124Z,19.90
2018-10-05T12:05:21.556Z,19.90
2018-10-05T12:07:50.925Z,19.91
2018-10-05T12:10:20.314Z,19.93
2018-10-05T12:12:49.834Z,19.92
2018-10-05T12:15:19.244Z,19.89
2018-10-05T12:17:48.723Z,19.84
2018-10-05T12:20:18.151Z,19.81
2018-10-05T12:22:47.664Z,19.82
2018-10-05T12:25:17.054Z,19.85
2018-10-05T12:27:46.682Z,19.89
2018-10-05T12:30:16.206Z,19.96
2018-10-05T12:32:45.709Z,20.01
2018-10-05T12:35:15.167Z,20.06
2018-10-05T12:37:44.576Z,20.13
2018-10-05T12:40:13.984Z,20.14
2018-10-05T12:42:43.384Z,20.15
2018-10-05T12:45:12.759Z,20.18
2018-10-05T12:47:42.181Z,20.22
2018-10-05T12:50:11.647Z,20.24
2018-10-05T12:52:41.084Z,20.26
2018-10-05T12:55:10.492Z,20.21
2018-10-05T12:57:39.955Z,20.17
2018-10-05T13:00:09.433Z,20.11
2018-10-05T13:02:38.892Z,20.07
2018-10-05T13:05:08.656Z,20.05
2018-10-05T13:07:38.094Z,20.07
2018-10-05T13:10:07.548Z,20.08
2018-10-05T13:12:36.968Z,20.11
2018-10-05T13:15:06.529Z,20.12
2018-10-05T13:17:35.956Z,20.10
2018-10-05T13:20:05.411Z,20.09
2018-10-05T13:22:34.792Z,20.07
2018-10-05T13:25:04.172Z,20.04
2018-10-05T13:27:33.708Z,20.02
2018-10-05T13:30:03.156Z,20.07
2018-10-05T13:32:32.560Z,20.11
2018-10-05T13:35:01.980Z,20.12
2018-10-05T13:37:31.487Z,20.12
2018-10-05T13:40:00.824Z,20.13
2018-10-05T13:42:30.296Z,20.14
2018-10-05T13:44:59.692Z,20.14
2018-10-05T13:47:29.099Z,20.16
2018-10-05T13:49:58.534Z,20.15
2018-10-05T13:52:27.903Z,20.12
2018-10-05T13:54:57.460Z,20.09
2018-10-05T13:57:26.968Z,20.05
2018-10-05T13:59:56.363Z,20.05
2018-10-05T14:02:25.757Z,20.04
2018-10-05T14:04:55.410Z,20.05
2018-10-05T14:07:24.815Z,20.07
2018-10-05T14:09:54.236Z,20.08
2018-10-05T14:12:23.706Z,20.08
2018-10-05T14:14:53.260Z,20.08
2018-10-05T14:17:22.790Z,20.07
2018-10-05T14:19:52.368Z,20.05
2018-10-05T14:22:21.801Z,20.02
2018-10-05T14:24:51.200Z,20.00
2018-10-05T14:27:20.708Z,20.00
2018-10-05T14:29:50.079Z,19.98
2018-10-05T14:32:19.552Z,19.94
2018-10-05T14:34:50.721Z,19.92
2018-10-05T14:37:20.159Z,19.88
2018-10-05T14:39:49.545Z,19.87
2018-10-05T14:42:18.952Z,19.85
2018-10-05T14:44:48.370Z,19.85
2018-10-05T14:47:17.760Z,19.81
2018-10-05T14:49:47.216Z,19.78
2018-10-05T14:52:20.701Z,19.74
2018-10-05T14:54:50.103Z,19.71
2018-10-05T14:57:19.931Z,19.68
2018-10-05T14:59:49.371Z,19.63
2018-10-05T15:02:18.780Z,19.60
2018-10-05T15:04:48.816Z,19.57
2018-10-05T15:07:18.223Z,19.55
2018-10-05T15:09:47.848Z,19.52
2018-10-05T15:12:17.222Z,19.48
2018-10-05T15:14:46.587Z,19.45
2018-10-05T15:17:15.999Z,19.40
2018-10-05T15:19:45.402Z,19.34
2018-10-05T15:22:14.931Z,19.30
2018-10-05T15:24:44.563Z,19.24
2018-10-05T15:27:14.010Z,19.17
2018-10-05T15:29:43.396Z,19.11
2018-10-05T15:32:12.827Z,19.05
2018-10-05T15:34:42.331Z,18.96
2018-10-05T15:37:11.779Z,18.91
2018-10-05T15:39:41.243Z,18.84
2018-10-05T15:42:10.667Z,18.79
2018-10-05T15:44:40.170Z,18.72
2018-10-05T15:47:13.241Z,18.68
2018-10-05T15:49:43.055Z,18.61
2018-10-05T15:52:12.516Z,18.56
2018-10-05T15:54:42.084Z,18.50
2018-10-05T15:57:11.516Z,18.44
2018-10-05T15:59:40.919Z,18.37
2018-10-05T16:02:10.327Z,18.32
2018-10-05T16:04:39.744Z,18.23
2018-10-05T16:07:09.139Z,18.15
2018-10-05T16:09:38.542Z,18.07
2018-10-05T16:12:07.979Z,18.00
2018-10-05T16:14:37.473Z,17.95
2018-10-05T16:17:07.025Z,17.88
2018-10-05T16:19:36.455Z,17.81
2018-10-05T16:22:05.892Z,17.73
2018-10-05T16:24:38.411Z,17.64
2018-10-05T16:27:08.016Z,17.55
2018-10-05T16:29:37.753Z,17.46
2018-10-05T16:32:07.784Z,17.36
2018-10-05T16:34:37.201Z,17.28
2018-10-05T16:37:06.881Z,17.19
2018-10-05T16:39:36.444Z,17.10
2018-10-05T16:42:05.939Z,17.03
2018-10-05T16:44:35.440Z,16.97
2018-10-05T16:47:04.851Z,16.89
2018-10-05T16:49:34.270Z,16.79
2018-10-05T16:52:03.676Z,16.70
2018-10-05T16:54:33.196Z,16.61
2018-10-05T16:57:02.988Z,16.51
2018-10-05T16:59:33.084Z,16.42
2018-10-05T17:02:02.500Z,16.33
2018-10-05T17:04:31.885Z,16.27
2018-10-05T17:07:01.264Z,16.20
2018-10-05T17:09:30.788Z,16.16
2018-10-05T17:12:00.292Z,16.15
2018-10-05T17:19:23.936Z,15.98
2018-10-05T17:21:53.372Z,15.93
2018-10-05T17:24:22.808Z,15.88
2018-10-05T17:26:52.247Z,15.85
2018-10-05T17:29:21.827Z,15.83
2018-10-05T17:31:51.157Z,15.79
2018-10-05T17:34:20.568Z,15.75
2018-10-05T17:36:50.012Z,15.71
2018-10-05T17:39:19.416Z,15.66
2018-10-05T17:41:48.976Z,15.61
2018-10-05T17:44:18.381Z,15.55
2018-10-05T17:46:47.808Z,15.48
2018-10-05T17:49:17.230Z,15.47
2018-10-05T17:51:46.640Z,15.47
2018-10-05T17:54:16.050Z,15.44
2018-10-05T17:56:45.448Z,15.40
2018-10-05T17:59:14.853Z,15.36
2018-10-05T18:01:44.283Z,15.32
2018-10-05T18:04:13.732Z,15.30
2018-10-05T18:06:43.177Z,15.27
2018-10-05T18:09:12.568Z,15.21
2018-10-05T18:11:42.112Z,15.16
2018-10-05T18:14:11.533Z,15.07
2018-10-05T18:16:40.996Z,15.04
2018-10-05T18:19:10.428Z,14.97
2018-10-05T18:21:39.828Z,14.92
2018-10-05T18:24:09.229Z,14.89
2018-10-05T18:26:38.696Z,14.85
2018-10-05T18:29:08.112Z,14.79
2018-10-05T18:31:37.512Z,14.76
2018-10-05T18:34:07.196Z,14.75
2018-10-05T18:36:36.670Z,14.73
2018-10-05T18:39:09.380Z,14.69
2018-10-05T18:41:38.795Z,14.66
2018-10-05T18:44:08.252Z,14.63
2018-10-05T18:46:37.693Z,14.57
2018-10-05T18:49:07.099Z,14.54
2018-10-05T18:51:36.513Z,14.50
2018-10-05T18:54:05.964Z,14.42
2018-10-05T18:56:52.434Z,14.38
2018-10-05T18:59:21.918Z,14.34
2018-10-05T19:01:51.337Z,14.29
2018-10-05T19:04:20.742Z,14.28
2018-10-05T19:06:50.300Z,14.25
2018-10-05T19:09:19.676Z,14.21
2018-10-05T19:11:49.166Z,14.17
2018-10-05T19:14:18.585Z,14.11
2018-10-05T19:16:47.991Z,14.07
2018-10-05T19:19:17.391Z,14.00
2018-10-05T19:21:46.832Z,13.97
2018-10-05T19:24:16.246Z,13.92
2018-10-05T19:26:45.728Z,13.90
2018-10-05T19:29:15.164Z,13.90
2018-10-05T19:31:44.649Z,13.88
2018-10-05T19:34:14.040Z,13.86
2018-10-05T19:36:43.470Z,13.83
2018-10-05T19:39:13.053Z,13.81
2018-10-05T19:41:42.532Z,13.76
2018-10-05T19:44:12.264Z,13.73
2018-10-05T19:46:41.894Z,13.69
2018-10-05T19:49:11.299Z,13.65
2018-10-05T19:51:40.804Z,13.59
2018-10-05T19:54:10.309Z,13.55
2018-10-05T19:56:39.715Z,13.52
2018-10-05T19:59:09.260Z,13.48
2018-10-05T20:01:38.693Z,13.43
2018-10-05T20:04:08.127Z,13.41
2018-10-05T20:06:37.593Z,13.41
2018-10-05T20:09:08.547Z,13.40
2018-10-05T20:11:37.980Z,13.38
2018-10-05T20:14:07.378Z,13.33
2018-10-05T20:16:36.805Z,13.28
2018-10-05T20:19:06.450Z,13.22
2018-10-05T20:21:35.872Z,13.18
2018-10-05T20:24:05.484Z,13.14
2018-10-05T20:26:34.965Z,13.10
2018-10-05T20:29:04.372Z,13.06
2018-10-05T20:31:33.781Z,13.02
2018-10-05T20:34:03.718Z,12.99
2018-10-05T20:36:33.357Z,12.96
2018-10-05T20:39:02.545Z,12.92
2018-10-05T20:41:32.111Z,12.86
2018-10-05T20:44:01.599Z,12.82
2018-10-05T20:46:31.009Z,12.79
2018-10-05T20:49:00.723Z,12.75
2018-10-05T20:51:30.185Z,12.72
2018-10-05T20:53:59.576Z,12.68
2018-10-05T20:56:29.256Z,12.64
2018-10-05T20:58:58.663Z,12.62
2018-10-05T21:01:28.118Z,12.58
2018-10-05T21:03:57.549Z,12.55
2018-10-05T21:06:26.953Z,12.52
2018-10-05T21:08:56.439Z,12.51
2018-10-05T21:11:25.863Z,12.45
2018-10-05T21:13:55.232Z,12.39
2018-10-05T21:16:24.739Z,12.35
2018-10-05T21:18:54.172Z,12.30
2018-10-05T21:21:23.636Z,12.25
2018-10-05T21:23:53.012Z,12.19
2018-10-05T21:26:22.589Z,12.14
2018-10-05T21:28:51.988Z,12.09
2018-10-05T21:31:21.400Z,12.05
2018-10-05T21:33:50.817Z,12.03
2018-10-05T21:36:20.202Z,11.95
2018-10-05T21:38:49.692Z,11.91
2018-10-05T21:41:19.039Z,11.86
2018-10-05T21:43:48.423Z,11.81
2018-10-05T21:46:17.845Z,11.77
2018-10-05T21:48:47.261Z,11.74
2018-10-05T21:51:16.722Z,11.69
2018-10-05T21:53:46.068Z,11.64
2018-10-05T21:56:15.494Z,11.58
2018-10-05T21:58:44.892Z,11.55
2018-10-05T22:01:14.263Z,11.51
2018-10-05T22:03:46.624Z,11.47
2018-10-05T22:06:17.956Z,11.44
2018-10-05T22:08:47.464Z,11.40
2018-10-05T22:11:17.032Z,11.35
2018-10-05T22:13:46.456Z,11.35
2018-10-05T22:16:15.878Z,11.34
2018-10-05T22:18:45.306Z,11.31
2018-10-05T22:21:14.967Z,11.30
2018-10-05T22:23:44.399Z,11.26
2018-10-05T22:26:13.780Z,11.23
2018-10-05T22:28:43.163Z,11.19
2018-10-05T22:31:12.594Z,11.19
2018-10-05T22:33:42.038Z,11.15
2018-10-05T22:36:17.779Z,11.12
2018-10-05T22:38:47.167Z,11.08
2018-10-05T22:41:16.606Z,11.05
2018-10-05T22:43:46.013Z,11.03
2018-10-05T22:46:15.420Z,11.01
2018-10-05T22:48:44.919Z,10.97
2018-10-05T22:51:14.371Z,10.93
2018-10-05T22:53:43.792Z,10.92
2018-10-05T22:56:13.215Z,10.90
2018-10-05T22:58:42.879Z,10.85
2018-10-05T23:01:12.263Z,10.85
2018-10-05T23:03:41.747Z,10.83
2018-10-05T23:06:11.171Z,10.80
2018-10-05T23:08:40.560Z,10.75
2018-10-05T23:11:09.943Z,10.71
2018-10-05T23:13:39.516Z,10.70
2018-10-05T23:16:09.249Z,10.69
2018-10-05T23:18:38.894Z,10.68
2018-10-05T23:21:08.316Z,10.66
2018-10-05T23:23:37.719Z,10.63
2018-10-05T23:26:07.348Z,10.61
2018-10-05T23:28:36.757Z,10.59
2018-10-05T23:31:06.262Z,10.58
2018-10-05T23:33:35.667Z,10.58
2018-10-05T23:36:05.148Z,10.56
2018-10-05T23:38:34.568Z,10.51
2018-10-05T23:41:03.951Z,10.52
2018-10-05T23:43:33.465Z,10.54
2018-10-05T23:46:03.110Z,10.52
2018-10-05T23:48:32.867Z,10.51
2018-10-05T23:51:02.371Z,10.49
2018-10-05T23:53:31.747Z,10.47
2018-10-05T23:56:01.142Z,10.45
2018-10-05T23:58:30.553Z,10.42
